Rome, OR

4:07 AM MDT on September 18, 2014 (GMT -0600)
Rome State | Change Station
CLOSE
Current Station
Airport
Location: Rome,
Elevation: 4049 ft
Nearby Weather Stations

Elev 4049 ft 42.59 °N, 117.86 °W | Updated 15 minutes ago

Overcast
Overcast
74 °F
Feels Like 74 °F
N
9
Wind Variable Wind from SSW
Gusts 6 mph

Today
High -- | Low -- °F
--% Chance of Precip.
Yesterday
High -- | Low -- °F
Precip. -- in
7:32 AM 7:54 PM
Waning Crescent, 28% visible
Pressure 29.66 in
Visibility -9999.0 miles
Clouds
Dew Point 34 °F
Humidity 23%
Rainfall 0.00 in
Snow Depth 0 in , 0 in , 2 in
UV Not available.
Pollen 5.20 out of 12
Air Quality Not available.
Flu Activity Not available.
METAR KREO 180952Z AUTO 20008KT 23/01 A2982 RMK AO1 SLP044 T02330011 $

More Conditions Fewer Conditions

Pressure 29.66 in
Visibility -9999.0 miles
Clouds
Dew Point 34 °F
Humidity 23%
Rainfall 0.00 in
Snow Depth 0 in , 0 in , 2 in
UV Not available.
Pollen 5.20 out of 12
Air Quality Not available.
Flu Activity Not available.
METAR KREO 180952Z AUTO 20008KT 23/01 A2982 RMK AO1 SLP044 T02330011 $

More Conditions Fewer Conditions

10-Day Weather Forecast

Almanac

Astronomy

Sep. 18, 2014 Rise Set
Actual Time 7:32 AM MDT 7:54 PM MDT
Civil Twilight 7:04 AM MDT 8:22 PM MDT
Nautical Twilight 6:31 AM MDT 8:55 PM MDT
Astronomical Twilight 5:57 AM MDT 9:29 PM MDT
Moon 2:23 AM MDT 4:53 PM MDT
Length of Visible Light 13h 17m
Length of Day
12h 21m
Tomorrow will be 2m 51s shorter.
Waning Crescent, 28% of the Moon is Illuminated
Today
Waning Crescent
Sep 24
New
Oct 1
First Quarter
Oct 8
Full
Oct 15
Last Quarter

Today's Extremes

State Highs State Lows

Community

WunderPhotos

Upload Photos

1,754,313 photos uploaded!

Nearby

Snow Depth

Station Depth Elevation
Hogg Pass 0 in 4760 ft
Annie Springs 0 in 6020 ft
Lucky Strike 2 in 5050 ft
Diamond Lake 0 in 5315 ft
Holland Meadows 1 in 4900 ft

Earthquake Activity

City Distance Mag. Time & Date
No recent earthquake activity has been reported nearby.
Minimum magnitude displayed is 2.5.

Coastal Water Temperatures

Place Temperature
No Stations Reporting

Nearby Weather Stations